sensor_id;sensor_type;location;lat;lon;timestamp;pressure;altitude;pressure_sealevel;temperature;humidity
58690;BME280;44470;53.206;-6.106;2023-04-27T00:00:25;101485.25;;;28.51;27.90
58690;BME280;44470;53.206;-6.106;2023-04-27T00:02:51;101486.19;;;28.50;28.29
58690;BME280;44470;53.206;-6.106;2023-04-27T00:05:17;101482.53;;;28.51;28.23
58690;BME280;44470;53.206;-6.106;2023-04-27T00:07:43;101486.34;;;28.47;28.08
58690;BME280;44470;53.206;-6.106;2023-04-27T00:10:09;101477.13;;;28.51;28.26
58690;BME280;44470;53.206;-6.106;2023-04-27T00:12:34;101476.25;;;28.51;28.10
58690;BME280;44470;53.206;-6.106;2023-04-27T00:15:00;101481.69;;;28.51;28.26
58690;BME280;44470;53.206;-6.106;2023-04-27T00:17:26;101470.03;;;28.49;28.10
58690;BME280;44470;53.206;-6.106;2023-04-27T00:19:51;101449.47;;;28.45;27.94
58690;BME280;44470;53.206;-6.106;2023-04-27T00:22:19;101427.47;;;28.32;28.33
58690;BME280;44470;53.206;-6.106;2023-04-27T00:24:45;101458.44;;;28.45;28.12
58690;BME280;44470;53.206;-6.106;2023-04-27T00:27:10;101465.56;;;28.48;28.30
58690;BME280;44470;53.206;-6.106;2023-04-27T00:29:39;101457.44;;;28.48;28.33
58690;BME280;44470;53.206;-6.106;2023-04-27T00:32:08;101459.25;;;28.47;28.27
58690;BME280;44470;53.206;-6.106;2023-04-27T00:34:34;101467.34;;;28.49;28.43
58690;BME280;44470;53.206;-6.106;2023-04-27T00:37:00;101465.44;;;28.51;27.98
58690;BME280;44470;53.206;-6.106;2023-04-27T00:39:26;101462.78;;;28.49;28.24
58690;BME280;44470;53.206;-6.106;2023-04-27T00:41:51;101434.38;;;28.39;28.24
58690;BME280;44470;53.206;-6.106;2023-04-27T00:44:25;101440.44;;;28.44;28.07
58690;BME280;44470;53.206;-6.106;2023-04-27T00:46:52;101440.16;;;28.50;28.55
58690;BME280;44470;53.206;-6.106;2023-04-27T00:49:22;101446.53;;;28.49;28.39
58690;BME280;44470;53.206;-6.106;2023-04-27T00:51:48;101425.16;;;28.43;28.38
58690;BME280;44470;53.206;-6.106;2023-04-27T00:54:14;101435.69;;;28.49;28.40
58690;BME280;44470;53.206;-6.106;2023-04-27T00:56:44;101425.91;;;28.47;28.19
58690;BME280;44470;53.206;-6.106;2023-04-27T00:59:14;101416.75;;;28.49;28.07
58690;BME280;44470;53.206;-6.106;2023-04-27T01:01:39;101419.47;;;28.49;28.52
58690;BME280;44470;53.206;-6.106;2023-04-27T01:04:05;101408.56;;;28.51;28.16
58690;BME280;44470;53.206;-6.106;2023-04-27T01:06:30;101390.38;;;28.34;27.98
58690;BME280;44470;53.206;-6.106;2023-04-27T01:08:56;101412.28;;;28.48;28.20
58690;BME280;44470;53.206;-6.106;2023-04-27T01:11:22;101399.56;;;28.50;28.13
58690;BME280;44470;53.206;-6.106;2023-04-27T01:13:48;101402.34;;;28.49;28.28
58690;BME280;44470;53.206;-6.106;2023-04-27T01:16:15;101367.16;;;28.28;28.31
58690;BME280;44470;53.206;-6.106;2023-04-27T01:18:41;101403.22;;;28.49;28.10
58690;BME280;44470;53.206;-6.106;2023-04-27T01:21:06;101395.22;;;28.46;28.17
58690;BME280;44470;53.206;-6.106;2023-04-27T01:23:32;101402.25;;;28.50;28.15
58690;BME280;44470;53.206;-6.106;2023-04-27T01:25:57;101392.47;;;28.48;28.53
58690;BME280;44470;53.206;-6.106;2023-04-27T01:28:23;101403.31;;;28.48;28.20
58690;BME280;44470;53.206;-6.106;2023-04-27T01:30:48;101396.03;;;28.48;28.47
58690;BME280;44470;53.206;-6.106;2023-04-27T01:33:14;101393.34;;;28.48;28.62
58690;BME280;44470;53.206;-6.106;2023-04-27T01:35:39;101394.28;;;28.47;28.19
58690;BME280;44470;53.206;-6.106;2023-04-27T01:38:05;101366.41;;;28.45;28.44
58690;BME280;44470;53.206;-6.106;2023-04-27T01:40:30;101379.78;;;28.48;28.53
58690;BME280;44470;53.206;-6.106;2023-04-27T01:42:56;101370.72;;;28.49;28.46
58690;BME280;44470;53.206;-6.106;2023-04-27T01:45:21;101364.34;;;28.50;28.34
58690;BME280;44470;53.206;-6.106;2023-04-27T01:47:50;101356.22;;;28.50;28.30
58690;BME280;44470;53.206;-6.106;2023-04-27T01:50:18;101315.69;;;28.30;28.55
58690;BME280;44470;53.206;-6.106;2023-04-27T01:52:45;101349.06;;;28.49;28.50
58690;BME280;44470;53.206;-6.106;2023-04-27T01:55:10;101345.50;;;28.49;28.40
58690;BME280;44470;53.206;-6.106;2023-04-27T01:57:36;101341.84;;;28.50;28.48
58690;BME280;44470;53.206;-6.106;2023-04-27T02:00:02;101345.41;;;28.50;28.54
58690;BME280;44470;53.206;-6.106;2023-04-27T02:02:46;101342.69;;;28.50;28.53
58690;BME280;44470;53.206;-6.106;2023-04-27T02:05:11;101259.44;;;27.96;28.69
58690;BME280;44470;53.206;-6.106;2023-04-27T02:07:37;101342.69;;;28.50;28.41
58690;BME280;44470;53.206;-6.106;2023-04-27T02:10:02;101333.19;;;28.41;28.30
58690;BME280;44470;53.206;-6.106;2023-04-27T02:12:28;101345.53;;;28.47;28.46
58690;BME280;44470;53.206;-6.106;2023-04-27T02:14:53;101311.13;;;28.30;28.45
58690;BME280;44470;53.206;-6.106;2023-04-27T02:17:19;101329.44;;;28.44;28.54
58690;BME280;44470;53.206;-6.106;2023-04-27T02:19:45;101246.72;;;27.98;28.40
58690;BME280;44470;53.206;-6.106;2023-04-27T02:22:11;101332.81;;;28.49;28.53
58690;BME280;44470;53.206;-6.106;2023-04-27T02:28:23;101327.41;;;28.49;28.62
58690;BME280;44470;53.206;-6.106;2023-04-27T02:30:49;101325.66;;;28.48;28.34
58690;BME280;44470;53.206;-6.106;2023-04-27T02:33:15;101322.94;;;28.48;28.47
58690;BME280;44470;53.206;-6.106;2023-04-27T02:35:40;101325.66;;;28.48;28.61
58690;BME280;44470;53.206;-6.106;2023-04-27T02:38:06;101329.31;;;28.47;28.68
58690;BME280;44470;53.206;-6.106;2023-04-27T02:40:35;101227.13;;;27.93;28.61
58690;BME280;44470;53.206;-6.106;2023-04-27T02:43:03;101319.38;;;28.48;28.39
58690;BME280;44470;53.206;-6.106;2023-04-27T02:45:30;101288.63;;;28.30;28.91
58690;BME280;44470;53.206;-6.106;2023-04-27T02:47:56;101317.53;;;28.48;28.49
58690;BME280;44470;53.206;-6.106;2023-04-27T02:50:22;101315.72;;;28.49;28.80
58690;BME280;44470;53.206;-6.106;2023-04-27T02:52:49;101305.19;;;28.42;28.68
58690;BME280;44470;53.206;-6.106;2023-04-27T02:55:15;101303.19;;;28.46;28.80
58690;BME280;44470;53.206;-6.106;2023-04-27T02:57:40;101307.50;;;28.50;28.83
58690;BME280;44470;53.206;-6.106;2023-04-27T03:00:06;101298.41;;;28.51;28.59
58690;BME280;44470;53.206;-6.106;2023-04-27T03:02:33;101293.31;;;28.45;28.63
58690;BME280;44470;53.206;-6.106;2023-04-27T03:04:59;101286.22;;;28.42;28.73
58690;BME280;44470;53.206;-6.106;2023-04-27T03:07:25;101288.63;;;28.49;28.79
58690;BME280;44470;53.206;-6.106;2023-04-27T03:09:50;101299.47;;;28.49;28.74
58690;BME280;44470;53.206;-6.106;2023-04-27T03:12:16;101300.31;;;28.49;28.90
58690;BME280;44470;53.206;-6.106;2023-04-27T03:14:41;101300.28;;;28.51;28.83
58690;BME280;44470;53.206;-6.106;2023-04-27T03:17:07;101281.63;;;28.45;28.81
58690;BME280;44470;53.206;-6.106;2023-04-27T03:19:32;101299.47;;;28.49;28.77
58690;BME280;44470;53.206;-6.106;2023-04-27T03:21:58;101295.88;;;28.48;28.87
58690;BME280;44470;53.206;-6.106;2023-04-27T03:24:23;101297.72;;;28.48;28.78
58690;BME280;44470;53.206;-6.106;2023-04-27T03:26:50;101287.75;;;28.48;28.98
58690;BME280;44470;53.206;-6.106;2023-04-27T03:29:16;101286.94;;;28.46;28.93
58690;BME280;44470;53.206;-6.106;2023-04-27T03:31:42;101292.28;;;28.48;28.77
58690;BME280;44470;53.206;-6.106;2023-04-27T03:34:07;101291.34;;;28.49;28.80
58690;BME280;44470;53.206;-6.106;2023-04-27T03:36:33;101288.69;;;28.47;28.73
58690;BME280;44470;53.206;-6.106;2023-04-27T03:38:58;101279.13;;;28.40;28.81
58690;BME280;44470;53.206;-6.106;2023-04-27T03:41:24;101293.16;;;28.48;29.17
58690;BME280;44470;53.206;-6.106;2023-04-27T03:43:50;101284.22;;;28.46;29.33
58690;BME280;44470;53.206;-6.106;2023-04-27T03:46:17;101280.56;;;28.47;29.17
58690;BME280;44470;53.206;-6.106;2023-04-27T03:48:43;101182.88;;;27.94;28.97
58690;BME280;44470;53.206;-6.106;2023-04-27T03:51:09;101266.09;;;28.48;29.22
58690;BME280;44470;53.206;-6.106;2023-04-27T03:53:34;101267.84;;;28.49;28.78
58690;BME280;44470;53.206;-6.106;2023-04-27T03:56:00;101266.97;;;28.49;29.12
58690;BME280;44470;53.206;-6.106;2023-04-27T03:58:26;101267.03;;;28.47;29.11
58690;BME280;44470;53.206;-6.106;2023-04-27T04:01:17;101267.03;;;28.47;29.25
58690;BME280;44470;53.206;-6.106;2023-04-27T04:03:44;101261.56;;;28.49;29.16
58690;BME280;44470;53.206;-6.106;2023-04-27T04:06:10;101270.53;;;28.49;29.10
58690;BME280;44470;53.206;-6.106;2023-04-27T04:08:36;101263.31;;;28.50;29.25
58690;BME280;44470;53.206;-6.106;2023-04-27T04:11:01;101257.00;;;28.49;29.11
58690;BME280;44470;53.206;-6.106;2023-04-27T04:13:28;101244.66;;;28.43;29.16
58690;BME280;44470;53.206;-6.106;2023-04-27T04:16:05;101244.41;;;28.48;29.24
58690;BME280;44470;53.206;-6.106;2023-04-27T04:18:32;101240.75;;;28.49;28.96
58690;BME280;44470;53.206;-6.106;2023-04-27T04:20:57;101242.66;;;28.47;29.49
58690;BME280;44470;53.206;-6.106;2023-04-27T04:23:23;101242.66;;;28.47;29.34
58690;BME280;44470;53.206;-6.106;2023-04-27T04:25:49;101237.25;;;28.47;29.13
58690;BME280;44470;53.206;-6.106;2023-04-27T04:28:14;101229.22;;;28.46;29.19
58690;BME280;44470;53.206;-6.106;2023-04-27T04:30:40;101226.41;;;28.47;28.98
58690;BME280;44470;53.206;-6.106;2023-04-27T04:33:07;101224.97;;;28.40;29.44
58690;BME280;44470;53.206;-6.106;2023-04-27T04:35:38;101234.53;;;28.47;29.21
58690;BME280;44470;53.206;-6.106;2023-04-27T04:38:04;101231.03;;;28.45;29.44
58690;BME280;44470;53.206;-6.106;2023-04-27T04:40:30;101212.09;;;28.45;29.19
58690;BME280;44470;53.206;-6.106;2023-04-27T04:42:55;101177.00;;;28.24;29.24
58690;BME280;44470;53.206;-6.106;2023-04-27T04:45:21;101226.56;;;28.44;29.29
58690;BME280;44470;53.206;-6.106;2023-04-27T04:47:48;101222.91;;;28.45;29.18
58690;BME280;44470;53.206;-6.106;2023-04-27T04:50:14;101212.97;;;28.46;29.38
58690;BME280;44470;53.206;-6.106;2023-04-27T04:52:39;101217.50;;;28.45;29.42
58690;BME280;44470;53.206;-6.106;2023-04-27T04:55:05;101221.97;;;28.46;29.15
58690;BME280;44470;53.206;-6.106;2023-04-27T04:57:31;101220.16;;;28.47;29.13
58690;BME280;44470;53.206;-6.106;2023-04-27T04:59:56;101211.13;;;28.46;29.28
58690;BME280;44470;53.206;-6.106;2023-04-27T05:02:22;101209.53;;;28.42;29.12
58690;BME280;44470;53.206;-6.106;2023-04-27T05:04:48;101160.31;;;28.14;29.47
58690;BME280;44470;53.206;-6.106;2023-04-27T05:07:13;101201.25;;;28.45;29.29
58690;BME280;44470;53.206;-6.106;2023-04-27T05:09:39;101195.13;;;28.41;29.38
58690;BME280;44470;53.206;-6.106;2023-04-27T05:12:05;101206.66;;;28.45;29.11
58690;BME280;44470;53.206;-6.106;2023-04-27T05:14:31;101199.50;;;28.44;29.48
58690;BME280;44470;53.206;-6.106;2023-04-27T05:16:57;101196.94;;;28.41;29.43
58690;BME280;44470;53.206;-6.106;2023-04-27T05:19:22;101204.13;;;28.42;29.39
58690;BME280;44470;53.206;-6.106;2023-04-27T05:21:49;101196.00;;;28.42;29.27
58690;BME280;44470;53.206;-6.106;2023-04-27T05:24:16;101196.00;;;28.42;29.44
58690;BME280;44470;53.206;-6.106;2023-04-27T05:26:42;101200.44;;;28.43;29.36
58690;BME280;44470;53.206;-6.106;2023-04-27T05:29:08;101188.81;;;28.41;29.34
58690;BME280;44470;53.206;-6.106;2023-04-27T05:31:33;101169.16;;;28.37;29.46
58690;BME280;44470;53.206;-6.106;2023-04-27T05:33:59;101190.53;;;28.43;29.67
58690;BME280;44470;53.206;-6.106;2023-04-27T05:36:24;101190.72;;;28.39;29.47
58690;BME280;44470;53.206;-6.106;2023-04-27T05:38:51;101196.00;;;28.42;29.30
58690;BME280;44470;53.206;-6.106;2023-04-27T05:41:16;101195.03;;;28.43;29.58
58690;BME280;44470;53.206;-6.106;2023-04-27T05:43:42;101108.19;;;27.92;29.63
58690;BME280;44470;53.206;-6.106;2023-04-27T05:46:07;101188.03;;;28.39;29.43
58690;BME280;44470;53.206;-6.106;2023-04-27T05:48:33;101180.69;;;28.41;29.40
58690;BME280;44470;53.206;-6.106;2023-04-27T05:51:02;101169.22;;;28.36;29.48
58690;BME280;44470;53.206;-6.106;2023-04-27T05:53:29;101178.00;;;28.41;29.34
58690;BME280;44470;53.206;-6.106;2023-04-27T05:55:55;101178.09;;;28.39;29.37
58690;BME280;44470;53.206;-6.106;2023-04-27T05:58:23;101181.66;;;28.40;29.25
58690;BME280;44470;53.206;-6.106;2023-04-27T06:00:49;101147.53;;;28.18;29.66
58690;BME280;44470;53.206;-6.106;2023-04-27T06:03:15;101170.09;;;28.36;29.40
58690;BME280;44470;53.206;-6.106;2023-04-27T06:05:40;101178.78;;;28.43;29.31
58690;BME280;44470;53.206;-6.106;2023-04-27T06:08:06;101081.28;;;27.89;29.68
58690;BME280;44470;53.206;-6.106;2023-04-27T06:10:31;101168.13;;;28.40;29.81
58690;BME280;44470;53.206;-6.106;2023-04-27T06:12:57;101154.91;;;28.34;29.56
58690;BME280;44470;53.206;-6.106;2023-04-27T06:15:22;101171.88;;;28.37;29.54
58690;BME280;44470;53.206;-6.106;2023-04-27T06:17:48;101167.31;;;28.38;29.48
58690;BME280;44470;53.206;-6.106;2023-04-27T06:20:13;101132.25;;;28.17;29.48
58690;BME280;44470;53.206;-6.106;2023-04-27T06:22:40;101150.66;;;28.28;29.62
58690;BME280;44470;53.206;-6.106;2023-04-27T06:25:05;101163.66;;;28.39;29.59
58690;BME280;44470;53.206;-6.106;2023-04-27T06:27:32;101151.22;;;28.35;29.32
58690;BME280;44470;53.206;-6.106;2023-04-27T06:29:57;101114.00;;;28.21;29.43
58690;BME280;44470;53.206;-6.106;2023-04-27T06:32:23;101139.50;;;28.34;29.45
58690;BME280;44470;53.206;-6.106;2023-04-27T06:34:49;101150.13;;;28.39;29.31
58690;BME280;44470;53.206;-6.106;2023-04-27T06:37:14;101147.25;;;28.42;29.67
58690;BME280;44470;53.206;-6.106;2023-04-27T06:39:42;101105.84;;;28.22;29.68
58690;BME280;44470;53.206;-6.106;2023-04-27T06:42:08;101135.63;;;28.40;29.45
58690;BME280;44470;53.206;-6.106;2023-04-27T06:44:33;101138.34;;;28.40;29.34
58690;BME280;44470;53.206;-6.106;2023-04-27T06:46:59;101127.59;;;28.38;29.47
58690;BME280;44470;53.206;-6.106;2023-04-27T06:49:24;101133.88;;;28.39;29.65
58690;BME280;44470;53.206;-6.106;2023-04-27T06:51:50;101110.69;;;28.33;29.49
58690;BME280;44470;53.206;-6.106;2023-04-27T06:54:15;101121.47;;;28.35;29.41
58690;BME280;44470;53.206;-6.106;2023-04-27T06:56:41;101132.13;;;28.38;29.56
58690;BME280;44470;53.206;-6.106;2023-04-27T06:59:07;101128.47;;;28.39;29.31
58690;BME280;44470;53.206;-6.106;2023-04-27T07:01:33;101079.31;;;28.10;29.74
58690;BME280;44470;53.206;-6.106;2023-04-27T07:03:59;101112.53;;;28.33;29.40
58690;BME280;44470;53.206;-6.106;2023-04-27T07:06:24;101122.25;;;28.37;29.75
58690;BME280;44470;53.206;-6.106;2023-04-27T07:08:51;101117.94;;;28.33;29.34
58690;BME280;44470;53.206;-6.106;2023-04-27T07:11:16;101095.00;;;28.22;29.90
58690;BME280;44470;53.206;-6.106;2023-04-27T07:13:42;101130.31;;;28.38;29.69
58690;BME280;44470;53.206;-6.106;2023-04-27T07:16:07;101124.91;;;28.38;29.70
58690;BME280;44470;53.206;-6.106;2023-04-27T07:18:33;101124.16;;;28.35;29.64
58690;BME280;44470;53.206;-6.106;2023-04-27T07:20:58;101089.75;;;28.19;29.39
58690;BME280;44470;53.206;-6.106;2023-04-27T07:23:24;101121.25;;;28.39;29.84
58690;BME280;44470;53.206;-6.106;2023-04-27T07:25:50;101123.06;;;28.39;29.50
58690;BME280;44470;53.206;-6.106;2023-04-27T07:28:16;101128.47;;;28.39;29.69
58690;BME280;44470;53.206;-6.106;2023-04-27T07:30:42;101127.66;;;28.37;29.60
58690;BME280;44470;53.206;-6.106;2023-04-27T07:33:08;101117.72;;;28.37;29.40
58690;BME280;44470;53.206;-6.106;2023-04-27T07:35:34;101089.91;;;28.16;29.89
58690;BME280;44470;53.206;-6.106;2023-04-27T07:38:00;101064.19;;;28.06;29.77
58690;BME280;44470;53.206;-6.106;2023-04-27T07:40:27;101110.53;;;28.36;29.51
58690;BME280;44470;53.206;-6.106;2023-04-27T07:42:53;101080.84;;;28.17;29.61
58690;BME280;44470;53.206;-6.106;2023-04-27T07:45:19;101100.81;;;28.32;29.60
58690;BME280;44470;53.206;-6.106;2023-04-27T07:47:46;101118.66;;;28.36;29.77
58690;BME280;44470;53.206;-6.106;2023-04-27T07:50:12;101124.16;;;28.35;29.88
58690;BME280;44470;53.206;-6.106;2023-04-27T07:52:42;101126.66;;;28.39;29.78
58690;BME280;44470;53.206;-6.106;2023-04-27T07:55:07;101118.59;;;28.38;29.51
58690;BME280;44470;53.206;-6.106;2023-04-27T07:57:34;101109.84;;;28.33;29.72
58690;BME280;44470;53.206;-6.106;2023-04-27T07:59:59;101109.19;;;28.27;29.70
58690;BME280;44470;53.206;-6.106;2023-04-27T08:02:26;101107.28;;;28.30;29.60
58690;BME280;44470;53.206;-6.106;2023-04-27T08:04:55;101084.50;;;28.16;29.74
58690;BME280;44470;53.206;-6.106;2023-04-27T08:07:21;101113.41;;;28.33;29.48
58690;BME280;44470;53.206;-6.106;2023-04-27T08:09:49;101079.09;;;28.16;29.66
58690;BME280;44470;53.206;-6.106;2023-04-27T08:12:15;101108.94;;;28.32;29.80
58690;BME280;44470;53.206;-6.106;2023-04-27T08:14:40;101105.28;;;28.33;29.54
58690;BME280;44470;53.206;-6.106;2023-04-27T08:17:06;101094.53;;;28.32;29.75
58690;BME280;44470;53.206;-6.106;2023-04-27T08:19:31;101103.38;;;28.35;29.61
58690;BME280;44470;53.206;-6.106;2023-04-27T08:21:57;101099.88;;;28.33;29.72
58690;BME280;44470;53.206;-6.106;2023-04-27T08:24:22;101022.56;;;27.91;29.56
58690;BME280;44470;53.206;-6.106;2023-04-27T08:26:48;101090.88;;;28.33;29.52
58690;BME280;44470;53.206;-6.106;2023-04-27T08:29:13;101099.88;;;28.33;29.52
58690;BME280;44470;53.206;-6.106;2023-04-27T08:31:39;101084.53;;;28.34;29.47
58690;BME280;44470;53.206;-6.106;2023-04-27T08:34:04;101079.16;;;28.32;29.39
58690;BME280;44470;53.206;-6.106;2023-04-27T08:36:30;101039.34;;;28.17;29.57
58690;BME280;44470;53.206;-6.106;2023-04-27T08:38:56;101071.84;;;28.34;29.78
58690;BME280;44470;53.206;-6.106;2023-04-27T08:41:22;101069.00;;;28.37;29.73
58690;BME280;44470;53.206;-6.106;2023-04-27T08:43:49;101066.53;;;28.33;29.75
58690;BME280;44470;53.206;-6.106;2023-04-27T08:46:19;101075.28;;;28.38;29.63
58690;BME280;44470;53.206;-6.106;2023-04-27T08:48:46;101053.06;;;28.31;29.47
58690;BME280;44470;53.206;-6.106;2023-04-27T08:51:14;101057.44;;;28.34;29.80
58690;BME280;44470;53.206;-6.106;2023-04-27T08:53:47;101007.16;;;28.10;29.63
58690;BME280;44470;53.206;-6.106;2023-04-27T08:56:13;101043.13;;;28.32;29.61
58690;BME280;44470;53.206;-6.106;2023-04-27T08:58:39;101039.78;;;28.26;29.60
58690;BME280;44470;53.206;-6.106;2023-04-27T09:01:05;101013.34;;;28.14;29.88
58690;BME280;44470;53.206;-6.106;2023-04-27T09:03:35;101049.50;;;28.31;29.65
58690;BME280;44470;53.206;-6.106;2023-04-27T09:06:02;101047.34;;;28.37;29.91
58690;BME280;44470;53.206;-6.106;2023-04-27T09:08:28;101039.63;;;28.30;30.10
58690;BME280;44470;53.206;-6.106;2023-04-27T09:10:54;101032.59;;;28.25;30.05
58690;BME280;44470;53.206;-6.106;2023-04-27T09:13:20;101045.72;;;28.33;29.74
58690;BME280;44470;53.206;-6.106;2023-04-27T09:15:47;101043.91;;;28.34;29.77
58690;BME280;44470;53.206;-6.106;2023-04-27T09:18:21;101044.94;;;28.31;30.16
58690;BME280;44470;53.206;-6.106;2023-04-27T09:20:49;100974.19;;;27.84;30.17
58690;BME280;44470;53.206;-6.106;2023-04-27T09:23:37;101054.81;;;28.32;30.02
58690;BME280;44470;53.206;-6.106;2023-04-27T09:26:04;101060.31;;;28.31;30.33
58690;BME280;44470;53.206;-6.106;2023-04-27T09:28:33;101015.09;;;28.15;30.17
58690;BME280;44470;53.206;-6.106;2023-04-27T09:31:02;101001.75;;;28.10;30.07
58690;BME280;44470;53.206;-6.106;2023-04-27T09:33:33;101035.31;;;28.25;30.05
58690;BME280;44470;53.206;-6.106;2023-04-27T09:36:00;101035.16;;;28.28;30.30
58690;BME280;44470;53.206;-6.106;2023-04-27T09:38:26;101040.56;;;28.28;30.05
58690;BME280;44470;53.206;-6.106;2023-04-27T09:40:53;100981.06;;;27.92;29.91
58690;BME280;44470;53.206;-6.106;2023-04-27T09:43:19;101030.69;;;28.27;30.01
58690;BME280;44470;53.206;-6.106;2023-04-27T09:45:45;101023.75;;;28.22;30.26
58690;BME280;44470;53.206;-6.106;2023-04-27T09:48:11;101031.88;;;28.22;30.64
58690;BME280;44470;53.206;-6.106;2023-04-27T09:50:40;101026.31;;;28.25;30.39
58690;BME280;44470;53.206;-6.106;2023-04-27T09:53:11;101028.38;;;28.20;30.60
58690;BME280;44470;53.206;-6.106;2023-04-27T09:55:47;101021.16;;;28.20;30.99
58690;BME280;44470;53.206;-6.106;2023-04-27T10:06:50;100998.56;;;27.65;31.24
58690;BME280;44470;53.206;-6.106;2023-04-27T10:09:23;101011.91;;;27.49;31.35
58690;BME280;44470;53.206;-6.106;2023-04-27T10:11:51;101009.19;;;27.30;31.67
58690;BME280;44470;53.206;-6.106;2023-04-27T10:14:19;100981.03;;;27.36;31.84
58690;BME280;44470;53.206;-6.106;2023-04-27T10:16:50;100977.13;;;27.41;31.86
58690;BME280;44470;53.206;-6.106;2023-04-27T10:19:16;101003.03;;;27.66;31.24
58690;BME280;44470;53.206;-6.106;2023-04-27T10:21:59;101001.38;;;26.43;32.25
58690;BME280;44470;53.206;-6.106;2023-04-27T10:24:37;100999.22;;;26.08;33.00
58690;BME280;44470;53.206;-6.106;2023-04-27T10:27:05;100998.97;;;25.70;33.79
58690;BME280;44470;53.206;-6.106;2023-04-27T10:29:35;101011.47;;;25.48;33.85
58690;BME280;44470;53.206;-6.106;2023-04-27T10:32:08;100998.28;;;25.17;34.71
58690;BME280;44470;53.206;-6.106;2023-04-27T10:34:35;101009.72;;;24.73;35.38
58690;BME280;44470;53.206;-6.106;2023-04-27T10:37:09;100974.97;;;24.66;34.91
58690;BME280;44470;53.206;-6.106;2023-04-27T10:39:41;101000.56;;;24.78;35.29
58690;BME280;44470;53.206;-6.106;2023-04-27T10:42:07;101004.19;;;24.77;35.56
58690;BME280;44470;53.206;-6.106;2023-04-27T10:44:34;100981.00;;;25.46;34.60
58690;BME280;44470;53.206;-6.106;2023-04-27T10:47:11;100987.91;;;25.98;34.00
58690;BME280;44470;53.206;-6.106;2023-04-27T10:49:38;100985.59;;;26.11;34.14
58690;BME280;44470;53.206;-6.106;2023-04-27T10:52:04;100985.63;;;26.32;33.70
58690;BME280;44470;53.206;-6.106;2023-04-27T10:54:31;100981.47;;;26.45;33.49
58690;BME280;44470;53.206;-6.106;2023-04-27T10:57:03;100974.88;;;26.52;33.38
58690;BME280;44470;53.206;-6.106;2023-04-27T10:59:28;100979.31;;;26.53;32.95
58690;BME280;44470;53.206;-6.106;2023-04-27T11:01:54;100975.41;;;26.61;32.67
58690;BME280;44470;53.206;-6.106;2023-04-27T11:04:20;100970.19;;;26.56;33.12
58690;BME280;44470;53.206;-6.106;2023-04-27T11:06:45;100968.25;;;26.60;33.01
58690;BME280;44470;53.206;-6.106;2023-04-27T11:09:12;100944.44;;;26.49;33.18
58690;BME280;44470;53.206;-6.106;2023-04-27T11:11:42;100961.38;;;26.52;33.03
58690;BME280;44470;53.206;-6.106;2023-04-27T11:14:08;100924.78;;;26.45;32.92
58690;BME280;44470;53.206;-6.106;2023-04-27T11:16:34;100960.69;;;26.68;33.17
58690;BME280;44470;53.206;-6.106;2023-04-27T11:19:04;100957.69;;;26.74;32.76
58690;BME280;44470;53.206;-6.106;2023-04-27T11:21:31;100948.41;;;26.61;33.28
58690;BME280;44470;53.206;-6.106;2023-04-27T11:24:05;100935.25;;;26.53;33.11
58690;BME280;44470;53.206;-6.106;2023-04-27T11:26:31;100938.56;;;26.60;33.25
58690;BME280;44470;53.206;-6.106;2023-04-27T11:29:00;100933.25;;;26.77;32.98
58690;BME280;44470;53.206;-6.106;2023-04-27T11:31:26;100931.94;;;26.67;33.00
58690;BME280;44470;53.206;-6.106;2023-04-27T11:33:53;100950.03;;;27.05;32.25
58690;BME280;44470;53.206;-6.106;2023-04-27T11:36:22;100942.94;;;27.40;31.23
58690;BME280;44470;53.206;-6.106;2023-04-27T11:38:47;100931.56;;;27.53;30.97
58690;BME280;44470;53.206;-6.106;2023-04-27T11:41:13;100942.81;;;27.63;31.11
58690;BME280;44470;53.206;-6.106;2023-04-27T11:43:41;100921.81;;;27.68;30.79
58690;BME280;44470;53.206;-6.106;2023-04-27T11:46:08;100889.09;;;27.55;31.03
58690;BME280;44470;53.206;-6.106;2023-04-27T11:48:37;100917.78;;;27.77;30.99
58690;BME280;44470;53.206;-6.106;2023-04-27T11:51:03;100907.13;;;27.74;30.78
58690;BME280;44470;53.206;-6.106;2023-04-27T11:53:34;100916.50;;;27.84;30.65
58690;BME280;44470;53.206;-6.106;2023-04-27T11:56:02;100875.16;;;27.64;30.67
58690;BME280;44470;53.206;-6.106;2023-04-27T11:58:38;100914.59;;;27.86;30.74
58690;BME280;44470;53.206;-6.106;2023-04-27T12:01:05;100885.41;;;27.75;31.06
58690;BME280;44470;53.206;-6.106;2023-04-27T12:03:31;100922.66;;;27.88;30.89
58690;BME280;44470;53.206;-6.106;2023-04-27T12:05:57;100921.75;;;27.87;30.47
58690;BME280;44470;53.206;-6.106;2023-04-27T12:08:23;100912.84;;;27.85;30.92
58690;BME280;44470;53.206;-6.106;2023-04-27T12:10:48;100916.28;;;27.89;30.88
58690;BME280;44470;53.206;-6.106;2023-04-27T12:13:15;100891.91;;;27.71;30.80
58690;BME280;44470;53.206;-6.106;2023-04-27T12:15:41;100897.16;;;27.74;30.57
58690;BME280;44470;53.206;-6.106;2023-04-27T12:18:07;100926.06;;;27.91;30.67
58690;BME280;44470;53.206;-6.106;2023-04-27T12:20:34;100917.94;;;27.91;30.67
58690;BME280;44470;53.206;-6.106;2023-04-27T12:23:00;100920.66;;;27.91;30.58
58690;BME280;44470;53.206;-6.106;2023-04-27T12:25:25;100923.28;;;27.93;30.69
58690;BME280;44470;53.206;-6.106;2023-04-27T12:27:51;100916.94;;;27.94;30.52
58690;BME280;44470;53.206;-6.106;2023-04-27T12:30:18;100923.28;;;27.93;30.75
58690;BME280;44470;53.206;-6.106;2023-04-27T12:32:43;100917.00;;;27.92;30.33
58690;BME280;44470;53.206;-6.106;2023-04-27T12:35:09;100917.31;;;27.86;30.51
58690;BME280;44470;53.206;-6.106;2023-04-27T12:37:35;100920.66;;;27.91;30.62
58690;BME280;44470;53.206;-6.106;2023-04-27T12:40:01;100923.28;;;27.93;30.69
58690;BME280;44470;53.206;-6.106;2023-04-27T12:42:30;100915.25;;;27.91;30.58
58690;BME280;44470;53.206;-6.106;2023-04-27T12:44:56;100922.41;;;27.92;30.70
58690;BME280;44470;53.206;-6.106;2023-04-27T12:47:22;100920.59;;;27.93;30.94
58690;BME280;44470;53.206;-6.106;2023-04-27T12:49:47;100913.34;;;27.93;30.90